sensor_id;sensor_type;location;lat;lon;timestamp;P1;durP1;ratioP1;P2;durP2;ratioP2
21927;SDS011;11128;51.096;17.190;2023-12-20T00:04:22;6.97;;;4.43;;
21927;SDS011;11128;51.096;17.190;2023-12-20T00:09:23;9.30;;;4.47;;
21927;SDS011;11128;51.096;17.190;2023-12-20T00:14:24;8.57;;;4.35;;
21927;SDS011;11128;51.096;17.190;2023-12-20T00:19:26;12.23;;;5.20;;
21927;SDS011;11128;51.096;17.190;2023-12-20T00:24:27;9.23;;;4.63;;
21927;SDS011;11128;51.096;17.190;2023-12-20T00:29:28;8.07;;;4.60;;
21927;SDS011;11128;51.096;17.190;2023-12-20T00:34:29;9.50;;;4.40;;
21927;SDS011;11128;51.096;17.190;2023-12-20T00:39:30;9.13;;;4.03;;
21927;SDS011;11128;51.096;17.190;2023-12-20T00:44:32;8.68;;;4.47;;
21927;SDS011;11128;51.096;17.190;2023-12-20T00:49:33;7.47;;;4.65;;
21927;SDS011;11128;51.096;17.190;2023-12-20T00:54:35;6.80;;;4.40;;
21927;SDS011;11128;51.096;17.190;2023-12-20T00:59:36;10.73;;;4.97;;
21927;SDS011;11128;51.096;17.190;2023-12-20T01:04:38;8.70;;;4.95;;
21927;SDS011;11128;51.096;17.190;2023-12-20T01:09:39;10.43;;;5.18;;
21927;SDS011;11128;51.096;17.190;2023-12-20T01:14:41;8.93;;;5.05;;
21927;SDS011;11128;51.096;17.190;2023-12-20T01:19:42;11.63;;;5.50;;
21927;SDS011;11128;51.096;17.190;2023-12-20T01:24:44;10.13;;;5.10;;
21927;SDS011;11128;51.096;17.190;2023-12-20T01:29:45;9.25;;;5.63;;
21927;SDS011;11128;51.096;17.190;2023-12-20T01:34:46;13.80;;;5.70;;
21927;SDS011;11128;51.096;17.190;2023-12-20T01:39:49;7.65;;;4.88;;
21927;SDS011;11128;51.096;17.190;2023-12-20T01:44:50;10.23;;;5.65;;
21927;SDS011;11128;51.096;17.190;2023-12-20T01:49:51;9.27;;;5.43;;
21927;SDS011;11128;51.096;17.190;2023-12-20T01:54:53;7.18;;;4.45;;
21927;SDS011;11128;51.096;17.190;2023-12-20T01:59:57;9.15;;;5.07;;
21927;SDS011;11128;51.096;17.190;2023-12-20T02:04:58;8.13;;;4.40;;
21927;SDS011;11128;51.096;17.190;2023-12-20T02:10:00;8.35;;;4.38;;
21927;SDS011;11128;51.096;17.190;2023-12-20T02:15:02;8.60;;;3.92;;
21927;SDS011;11128;51.096;17.190;2023-12-20T02:20:04;6.68;;;3.72;;
21927;SDS011;11128;51.096;17.190;2023-12-20T02:25:06;7.13;;;4.25;;
21927;SDS011;11128;51.096;17.190;2023-12-20T02:30:08;7.18;;;4.53;;
21927;SDS011;11128;51.096;17.190;2023-12-20T02:35:09;6.55;;;3.80;;
21927;SDS011;11128;51.096;17.190;2023-12-20T02:40:11;7.80;;;4.28;;
21927;SDS011;11128;51.096;17.190;2023-12-20T02:45:14;6.45;;;3.75;;
21927;SDS011;11128;51.096;17.190;2023-12-20T02:50:15;5.35;;;3.38;;
21927;SDS011;11128;51.096;17.190;2023-12-20T02:55:16;4.25;;;2.88;;
21927;SDS011;11128;51.096;17.190;2023-12-20T03:00:17;3.90;;;2.60;;
21927;SDS011;11128;51.096;17.190;2023-12-20T03:05:19;3.63;;;2.25;;
21927;SDS011;11128;51.096;17.190;2023-12-20T03:10:21;3.60;;;2.35;;
21927;SDS011;11128;51.096;17.190;2023-12-20T03:15:22;3.35;;;2.15;;
21927;SDS011;11128;51.096;17.190;2023-12-20T03:20:23;3.88;;;2.33;;
21927;SDS011;11128;51.096;17.190;2023-12-20T03:25:26;3.67;;;2.45;;
21927;SDS011;11128;51.096;17.190;2023-12-20T03:30:27;3.70;;;2.38;;
21927;SDS011;11128;51.096;17.190;2023-12-20T03:35:28;3.63;;;2.22;;
21927;SDS011;11128;51.096;17.190;2023-12-20T03:40:29;2.38;;;1.52;;
21927;SDS011;11128;51.096;17.190;2023-12-20T03:45:31;2.92;;;1.65;;
21927;SDS011;11128;51.096;17.190;2023-12-20T03:50:32;2.88;;;1.40;;
21927;SDS011;11128;51.096;17.190;2023-12-20T03:55:33;1.50;;;1.17;;
21927;SDS011;11128;51.096;17.190;2023-12-20T04:00:34;2.38;;;1.02;;
21927;SDS011;11128;51.096;17.190;2023-12-20T04:05:35;1.55;;;1.00;;
21927;SDS011;11128;51.096;17.190;2023-12-20T04:10:36;1.02;;;0.90;;
21927;SDS011;11128;51.096;17.190;2023-12-20T04:15:38;0.95;;;0.75;;
21927;SDS011;11128;51.096;17.190;2023-12-20T04:20:39;4.47;;;0.80;;
21927;SDS011;11128;51.096;17.190;2023-12-20T04:25:40;0.60;;;0.60;;
21927;SDS011;11128;51.096;17.190;2023-12-20T04:30:42;0.68;;;0.65;;
21927;SDS011;11128;51.096;17.190;2023-12-20T04:35:43;0.70;;;0.70;;
21927;SDS011;11128;51.096;17.190;2023-12-20T04:40:46;1.08;;;0.60;;
21927;SDS011;11128;51.096;17.190;2023-12-20T04:45:48;1.13;;;0.70;;
21927;SDS011;11128;51.096;17.190;2023-12-20T04:50:50;0.98;;;0.80;;
21927;SDS011;11128;51.096;17.190;2023-12-20T04:55:51;2.20;;;1.00;;
21927;SDS011;11128;51.096;17.190;2023-12-20T05:00:52;0.70;;;0.70;;
21927;SDS011;11128;51.096;17.190;2023-12-20T05:05:53;1.17;;;0.75;;
21927;SDS011;11128;51.096;17.190;2023-12-20T05:10:55;1.52;;;0.98;;
21927;SDS011;11128;51.096;17.190;2023-12-20T05:15:56;0.70;;;0.70;;
21927;SDS011;11128;51.096;17.190;2023-12-20T05:20:57;1.40;;;0.50;;
21927;SDS011;11128;51.096;17.190;2023-12-20T05:25:59;0.60;;;0.60;;
21927;SDS011;11128;51.096;17.190;2023-12-20T05:31:00;0.60;;;0.60;;
21927;SDS011;11128;51.096;17.190;2023-12-20T05:36:01;1.13;;;0.50;;
21927;SDS011;11128;51.096;17.190;2023-12-20T05:41:03;0.73;;;0.70;;
21927;SDS011;11128;51.096;17.190;2023-12-20T05:46:04;0.45;;;0.45;;
21927;SDS011;11128;51.096;17.190;2023-12-20T05:51:06;0.52;;;0.45;;
21927;SDS011;11128;51.096;17.190;2023-12-20T05:56:07;0.60;;;0.60;;
21927;SDS011;11128;51.096;17.190;2023-12-20T06:01:08;1.42;;;0.75;;
21927;SDS011;11128;51.096;17.190;2023-12-20T06:06:09;0.65;;;0.65;;
21927;SDS011;11128;51.096;17.190;2023-12-20T06:11:10;0.60;;;0.60;;
21927;SDS011;11128;51.096;17.190;2023-12-20T06:16:12;0.95;;;0.70;;
21927;SDS011;11128;51.096;17.190;2023-12-20T06:21:13;1.08;;;0.88;;
21927;SDS011;11128;51.096;17.190;2023-12-20T06:26:14;1.38;;;0.90;;
21927;SDS011;11128;51.096;17.190;2023-12-20T06:31:16;1.27;;;1.13;;
21927;SDS011;11128;51.096;17.190;2023-12-20T06:36:17;1.85;;;0.77;;
21927;SDS011;11128;51.096;17.190;2023-12-20T06:41:18;1.40;;;1.27;;
21927;SDS011;11128;51.096;17.190;2023-12-20T06:46:19;3.35;;;0.80;;
21927;SDS011;11128;51.096;17.190;2023-12-20T06:51:21;1.52;;;1.25;;
21927;SDS011;11128;51.096;17.190;2023-12-20T06:56:25;1.20;;;0.80;;
21927;SDS011;11128;51.096;17.190;2023-12-20T07:01:27;1.58;;;1.05;;
21927;SDS011;11128;51.096;17.190;2023-12-20T07:06:28;1.80;;;0.98;;
21927;SDS011;11128;51.096;17.190;2023-12-20T07:11:29;2.92;;;0.77;;
21927;SDS011;11128;51.096;17.190;2023-12-20T07:16:30;0.80;;;0.70;;
21927;SDS011;11128;51.096;17.190;2023-12-20T07:21:32;1.42;;;1.20;;
21927;SDS011;11128;51.096;17.190;2023-12-20T07:26:34;5.22;;;0.80;;
21927;SDS011;11128;51.096;17.190;2023-12-20T07:31:36;0.63;;;0.50;;
21927;SDS011;11128;51.096;17.190;2023-12-20T07:36:37;2.65;;;0.77;;
21927;SDS011;11128;51.096;17.190;2023-12-20T07:41:38;0.88;;;0.70;;
21927;SDS011;11128;51.096;17.190;2023-12-20T07:46:39;3.67;;;1.05;;
21927;SDS011;11128;51.096;17.190;2023-12-20T07:51:41;0.60;;;0.60;;
21927;SDS011;11128;51.096;17.190;2023-12-20T07:56:43;1.25;;;0.80;;
21927;SDS011;11128;51.096;17.190;2023-12-20T08:01:44;1.15;;;0.88;;
21927;SDS011;11128;51.096;17.190;2023-12-20T08:06:45;1.40;;;0.90;;
21927;SDS011;11128;51.096;17.190;2023-12-20T08:11:47;1.52;;;0.85;;
21927;SDS011;11128;51.096;17.190;2023-12-20T08:16:49;4.00;;;1.17;;
21927;SDS011;11128;51.096;17.190;2023-12-20T08:21:50;1.00;;;0.60;;
21927;SDS011;11128;51.096;17.190;2023-12-20T08:26:51;1.08;;;0.75;;
21927;SDS011;11128;51.096;17.190;2023-12-20T08:31:53;0.70;;;0.70;;
21927;SDS011;11128;51.096;17.190;2023-12-20T08:36:55;0.85;;;0.70;;
21927;SDS011;11128;51.096;17.190;2023-12-20T08:41:56;0.75;;;0.50;;
21927;SDS011;11128;51.096;17.190;2023-12-20T08:46:57;0.70;;;0.70;;
21927;SDS011;11128;51.096;17.190;2023-12-20T08:51:59;0.75;;;0.60;;
21927;SDS011;11128;51.096;17.190;2023-12-20T08:57:00;0.50;;;0.40;;
21927;SDS011;11128;51.096;17.190;2023-12-20T09:02:02;1.15;;;0.75;;
21927;SDS011;11128;51.096;17.190;2023-12-20T09:07:03;5.63;;;1.83;;
21927;SDS011;11128;51.096;17.190;2023-12-20T09:12:05;2.72;;;0.80;;
21927;SDS011;11128;51.096;17.190;2023-12-20T09:17:06;2.67;;;1.20;;
21927;SDS011;11128;51.096;17.190;2023-12-20T09:22:09;1.65;;;0.82;;
21927;SDS011;11128;51.096;17.190;2023-12-20T09:27:11;1.73;;;0.82;;
21927;SDS011;11128;51.096;17.190;2023-12-20T09:32:12;2.55;;;0.90;;
21927;SDS011;11128;51.096;17.190;2023-12-20T09:37:14;2.03;;;1.02;;
21927;SDS011;11128;51.096;17.190;2023-12-20T09:42:16;1.08;;;0.90;;
21927;SDS011;11128;51.096;17.190;2023-12-20T09:47:32;2.88;;;0.93;;
21927;SDS011;11128;51.096;17.190;2023-12-20T09:52:34;0.88;;;0.80;;
21927;SDS011;11128;51.096;17.190;2023-12-20T09:57:37;0.80;;;0.65;;
21927;SDS011;11128;51.096;17.190;2023-12-20T10:02:39;1.88;;;1.30;;
21927;SDS011;11128;51.096;17.190;2023-12-20T10:07:47;2.70;;;1.10;;
21927;SDS011;11128;51.096;17.190;2023-12-20T10:13:01;2.80;;;1.40;;
21927;SDS011;11128;51.096;17.190;2023-12-20T10:18:04;3.65;;;1.60;;
21927;SDS011;11128;51.096;17.190;2023-12-20T10:23:06;5.07;;;1.75;;
21927;SDS011;11128;51.096;17.190;2023-12-20T10:28:16;3.20;;;2.03;;
21927;SDS011;11128;51.096;17.190;2023-12-20T10:33:26;2.33;;;1.40;;
21927;SDS011;11128;51.096;17.190;2023-12-20T10:38:33;4.28;;;1.88;;
21927;SDS011;11128;51.096;17.190;2023-12-20T10:43:36;3.75;;;2.00;;
21927;SDS011;11128;51.096;17.190;2023-12-20T10:48:38;3.03;;;1.52;;
21927;SDS011;11128;51.096;17.190;2023-12-20T10:53:40;2.97;;;1.40;;
21927;SDS011;11128;51.096;17.190;2023-12-20T10:58:42;3.78;;;1.55;;
21927;SDS011;11128;51.096;17.190;2023-12-20T11:03:48;3.83;;;1.67;;
21927;SDS011;11128;51.096;17.190;2023-12-20T11:08:53;4.38;;;1.50;;
21927;SDS011;11128;51.096;17.190;2023-12-20T11:14:19;2.92;;;1.10;;
21927;SDS011;11128;51.096;17.190;2023-12-20T11:19:24;5.97;;;1.13;;
21927;SDS011;11128;51.096;17.190;2023-12-20T11:24:25;5.88;;;1.50;;
21927;SDS011;11128;51.096;17.190;2023-12-20T11:29:34;3.15;;;1.30;;
21927;SDS011;11128;51.096;17.190;2023-12-20T11:34:37;4.60;;;1.73;;
21927;SDS011;11128;51.096;17.190;2023-12-20T11:39:38;4.28;;;1.58;;
21927;SDS011;11128;51.096;17.190;2023-12-20T11:44:39;7.50;;;1.70;;
21927;SDS011;11128;51.096;17.190;2023-12-20T11:49:43;2.60;;;0.93;;
21927;SDS011;11128;51.096;17.190;2023-12-20T11:54:45;2.72;;;0.82;;
21927;SDS011;11128;51.096;17.190;2023-12-20T11:59:47;0.70;;;0.70;;
21927;SDS011;11128;51.096;17.190;2023-12-20T12:04:48;4.18;;;0.98;;
21927;SDS011;11128;51.096;17.190;2023-12-20T12:09:51;1.15;;;0.63;;
21927;SDS011;11128;51.096;17.190;2023-12-20T12:14:53;0.50;;;0.50;;
21927;SDS011;11128;51.096;17.190;2023-12-20T12:20:04;2.47;;;0.82;;
21927;SDS011;11128;51.096;17.190;2023-12-20T12:25:10;4.25;;;0.70;;
21927;SDS011;11128;51.096;17.190;2023-12-20T12:30:12;1.55;;;0.80;;
21927;SDS011;11128;51.096;17.190;2023-12-20T12:35:14;1.02;;;0.80;;
21927;SDS011;11128;51.096;17.190;2023-12-20T12:40:16;1.30;;;0.73;;
21927;SDS011;11128;51.096;17.190;2023-12-20T12:45:18;5.30;;;1.00;;
21927;SDS011;11128;51.096;17.190;2023-12-20T12:50:19;2.17;;;0.95;;
21927;SDS011;11128;51.096;17.190;2023-12-20T12:55:22;1.90;;;0.75;;
21927;SDS011;11128;51.096;17.190;2023-12-20T13:00:23;2.75;;;0.80;;
21927;SDS011;11128;51.096;17.190;2023-12-20T13:05:25;1.02;;;0.77;;
21927;SDS011;11128;51.096;17.190;2023-12-20T13:10:27;1.52;;;0.80;;
21927;SDS011;11128;51.096;17.190;2023-12-20T13:15:28;4.93;;;1.27;;
21927;SDS011;11128;51.096;17.190;2023-12-20T13:20:31;1.48;;;0.93;;
21927;SDS011;11128;51.096;17.190;2023-12-20T13:25:32;3.33;;;1.17;;
21927;SDS011;11128;51.096;17.190;2023-12-20T13:30:34;3.05;;;1.65;;
21927;SDS011;11128;51.096;17.190;2023-12-20T13:35:36;3.50;;;1.20;;
21927;SDS011;11128;51.096;17.190;2023-12-20T13:40:38;2.50;;;0.85;;
21927;SDS011;11128;51.096;17.190;2023-12-20T13:45:39;1.25;;;0.90;;
21927;SDS011;11128;51.096;17.190;2023-12-20T13:50:40;3.42;;;1.40;;
21927;SDS011;11128;51.096;17.190;2023-12-20T13:55:42;4.25;;;1.00;;
21927;SDS011;11128;51.096;17.190;2023-12-20T14:00:43;1.50;;;0.98;;
21927;SDS011;11128;51.096;17.190;2023-12-20T14:05:45;2.50;;;0.85;;
21927;SDS011;11128;51.096;17.190;2023-12-20T14:10:47;1.25;;;0.70;;
21927;SDS011;11128;51.096;17.190;2023-12-20T14:15:49;2.92;;;1.00;;
21927;SDS011;11128;51.096;17.190;2023-12-20T14:20:51;4.43;;;1.23;;
21927;SDS011;11128;51.096;17.190;2023-12-20T14:25:53;3.75;;;1.00;;
21927;SDS011;11128;51.096;17.190;2023-12-20T14:30:56;3.17;;;1.50;;
21927;SDS011;11128;51.096;17.190;2023-12-20T14:35:58;1.98;;;0.88;;
21927;SDS011;11128;51.096;17.190;2023-12-20T14:40:59;2.13;;;0.90;;
21927;SDS011;11128;51.096;17.190;2023-12-20T14:46:01;2.35;;;0.82;;
21927;SDS011;11128;51.096;17.190;2023-12-20T14:51:02;3.67;;;0.98;;
21927;SDS011;11128;51.096;17.190;2023-12-20T14:56:04;3.67;;;1.70;;
21927;SDS011;11128;51.096;17.190;2023-12-20T15:01:06;1.83;;;1.02;;
21927;SDS011;11128;51.096;17.190;2023-12-20T15:06:09;9.85;;;2.85;;
21927;SDS011;11128;51.096;17.190;2023-12-20T15:11:12;3.65;;;2.08;;
21927;SDS011;11128;51.096;17.190;2023-12-20T15:16:14;2.58;;;1.30;;
21927;SDS011;11128;51.096;17.190;2023-12-20T15:21:16;6.55;;;2.00;;
21927;SDS011;11128;51.096;17.190;2023-12-20T15:26:18;5.85;;;1.60;;
21927;SDS011;11128;51.096;17.190;2023-12-20T15:31:20;3.03;;;1.52;;
21927;SDS011;11128;51.096;17.190;2023-12-20T15:36:27;3.80;;;0.93;;
21927;SDS011;11128;51.096;17.190;2023-12-20T15:41:28;6.25;;;1.48;;
21927;SDS011;11128;51.096;17.190;2023-12-20T15:46:30;4.78;;;1.60;;
21927;SDS011;11128;51.096;17.190;2023-12-20T15:51:31;2.85;;;1.60;;
21927;SDS011;11128;51.096;17.190;2023-12-20T15:56:33;6.72;;;2.00;;
21927;SDS011;11128;51.096;17.190;2023-12-20T16:01:35;4.78;;;1.98;;
21927;SDS011;11128;51.096;17.190;2023-12-20T16:06:36;4.75;;;1.67;;
21927;SDS011;11128;51.096;17.190;2023-12-20T16:11:38;5.57;;;2.20;;
21927;SDS011;11128;51.096;17.190;2023-12-20T16:16:41;4.00;;;1.38;;
21927;SDS011;11128;51.096;17.190;2023-12-20T16:21:43;5.97;;;2.00;;
21927;SDS011;11128;51.096;17.190;2023-12-20T16:26:44;4.65;;;1.70;;
21927;SDS011;11128;51.096;17.190;2023-12-20T16:31:45;7.78;;;2.70;;
21927;SDS011;11128;51.096;17.190;2023-12-20T16:36:53;7.15;;;2.78;;
21927;SDS011;11128;51.096;17.190;2023-12-20T16:41:55;8.32;;;2.42;;
21927;SDS011;11128;51.096;17.190;2023-12-20T16:46:57;5.07;;;2.47;;
21927;SDS011;11128;51.096;17.190;2023-12-20T16:51:58;6.03;;;2.70;;
21927;SDS011;11128;51.096;17.190;2023-12-20T16:57:00;7.05;;;3.05;;
21927;SDS011;11128;51.096;17.190;2023-12-20T17:02:01;7.57;;;3.10;;
21927;SDS011;11128;51.096;17.190;2023-12-20T17:07:04;5.93;;;2.83;;
21927;SDS011;11128;51.096;17.190;2023-12-20T17:12:06;6.85;;;2.35;;
21927;SDS011;11128;51.096;17.190;2023-12-20T17:17:08;8.93;;;3.10;;
21927;SDS011;11128;51.096;17.190;2023-12-20T17:22:10;5.97;;;2.38;;
21927;SDS011;11128;51.096;17.190;2023-12-20T17:27:11;5.60;;;2.30;;
21927;SDS011;11128;51.096;17.190;2023-12-20T17:32:13;5.93;;;2.33;;
21927;SDS011;11128;51.096;17.190;2023-12-20T17:37:14;5.57;;;2.20;;
21927;SDS011;11128;51.096;17.190;2023-12-20T17:42:16;2.65;;;1.77;;
21927;SDS011;11128;51.096;17.190;2023-12-20T17:47:17;6.20;;;1.85;;
21927;SDS011;11128;51.096;17.190;2023-12-20T17:52:19;3.97;;;1.42;;
21927;SDS011;11128;51.096;17.190;2023-12-20T17:57:21;2.75;;;1.13;;
21927;SDS011;11128;51.096;17.190;2023-12-20T18:02:24;2.58;;;1.30;;
21927;SDS011;11128;51.096;17.190;2023-12-20T18:07:26;1.70;;;1.00;;
21927;SDS011;11128;51.096;17.190;2023-12-20T18:12:27;2.90;;;1.00;;
21927;SDS011;11128;51.096;17.190;2023-12-20T18:17:29;1.30;;;1.00;;
21927;SDS011;11128;51.096;17.190;2023-12-20T18:22:30;3.83;;;1.13;;
21927;SDS011;11128;51.096;17.190;2023-12-20T18:27:32;1.83;;;0.90;;
21927;SDS011;11128;51.096;17.190;2023-12-20T18:32:35;2.42;;;0.93;;
21927;SDS011;11128;51.096;17.190;2023-12-20T18:37:36;2.25;;;1.38;;
21927;SDS011;11128;51.096;17.190;2023-12-20T18:42:39;3.83;;;1.40;;
21927;SDS011;11128;51.096;17.190;2023-12-20T18:47:41;1.85;;;1.17;;
21927;SDS011;11128;51.096;17.190;2023-12-20T18:52:43;2.88;;;1.15;;
21927;SDS011;11128;51.096;17.190;2023-12-20T18:57:44;2.55;;;1.15;;
21927;SDS011;11128;51.096;17.190;2023-12-20T19:02:45;3.28;;;1.25;;
21927;SDS011;11128;51.096;17.190;2023-12-20T19:07:47;1.10;;;0.95;;
21927;SDS011;11128;51.096;17.190;2023-12-20T19:12:50;2.53;;;0.80;;
21927;SDS011;11128;51.096;17.190;2023-12-20T19:17:51;5.28;;;1.58;;
21927;SDS011;11128;51.096;17.190;2023-12-20T19:22:54;2.80;;;0.70;;
21927;SDS011;11128;51.096;17.190;2023-12-20T19:27:56;2.03;;;1.10;;
21927;SDS011;11128;51.096;17.190;2023-12-20T19:32:58;1.00;;;0.80;;
21927;SDS011;11128;51.096;17.190;2023-12-20T19:38:00;2.85;;;1.00;;
21927;SDS011;11128;51.096;17.190;2023-12-20T19:43:01;2.42;;;1.02;;
21927;SDS011;11128;51.096;17.190;2023-12-20T19:48:06;5.78;;;1.23;;
21927;SDS011;11128;51.096;17.190;2023-12-20T19:53:08;1.98;;;0.90;;
21927;SDS011;11128;51.096;17.190;2023-12-20T19:58:10;4.25;;;1.00;;
21927;SDS011;11128;51.096;17.190;2023-12-20T20:03:12;2.33;;;0.95;;
21927;SDS011;11128;51.096;17.190;2023-12-20T20:08:14;2.10;;;1.40;;
21927;SDS011;11128;51.096;17.190;2023-12-20T20:13:15;2.20;;;0.93;;
21927;SDS011;11128;51.096;17.190;2023-12-20T20:18:20;1.52;;;1.40;;
21927;SDS011;11128;51.096;17.190;2023-12-20T20:23:22;2.25;;;1.33;;
21927;SDS011;11128;51.096;17.190;2023-12-20T20:28:23;3.10;;;1.02;;
21927;SDS011;11128;51.096;17.190;2023-12-20T20:33:29;2.88;;;1.48;;
21927;SDS011;11128;51.096;17.190;2023-12-20T20:38:31;6.45;;;1.75;;
21927;SDS011;11128;51.096;17.190;2023-12-20T20:43:32;2.30;;;1.38;;
21927;SDS011;11128;51.096;17.190;2023-12-20T20:48:34;2.92;;;1.70;;
21927;SDS011;11128;51.096;17.190;2023-12-20T20:53:37;2.80;;;1.65;;
21927;SDS011;11128;51.096;17.190;2023-12-20T20:58:38;1.88;;;1.23;;
21927;SDS011;11128;51.096;17.190;2023-12-20T21:03:40;3.90;;;1.60;;
21927;SDS011;11128;51.096;17.190;2023-12-20T21:08:41;5.30;;;1.20;;
21927;SDS011;11128;51.096;17.190;2023-12-20T21:13:43;3.25;;;1.13;;
21927;SDS011;11128;51.096;17.190;2023-12-20T21:18:48;5.68;;;2.50;;
21927;SDS011;11128;51.096;17.190;2023-12-20T21:23:49;5.63;;;1.23;;
21927;SDS011;11128;51.096;17.190;2023-12-20T21:28:51;3.25;;;1.30;;
21927;SDS011;11128;51.096;17.190;2023-12-20T21:33:52;2.63;;;1.50;;
21927;SDS011;11128;51.096;17.190;2023-12-20T21:38:55;3.05;;;1.30;;
21927;SDS011;11128;51.096;17.190;2023-12-20T21:43:57;2.20;;;1.45;;
21927;SDS011;11128;51.096;17.190;2023-12-20T21:48:58;2.50;;;1.42;;
21927;SDS011;11128;51.096;17.190;2023-12-20T21:53:59;3.05;;;1.50;;
21927;SDS011;11128;51.096;17.190;2023-12-20T21:59:03;4.85;;;1.65;;
21927;SDS011;11128;51.096;17.190;2023-12-20T22:04:05;4.88;;;1.58;;
21927;SDS011;11128;51.096;17.190;2023-12-20T22:09:06;1.35;;;1.13;;
21927;SDS011;11128;51.096;17.190;2023-12-20T22:14:09;4.25;;;1.73;;
21927;SDS011;11128;51.096;17.190;2023-12-20T22:19:10;2.22;;;1.08;;
21927;SDS011;11128;51.096;17.190;2023-12-20T22:24:11;3.92;;;2.30;;
21927;SDS011;11128;51.096;17.190;2023-12-20T22:29:12;3.50;;;1.23;;
21927;SDS011;11128;51.096;17.190;2023-12-20T22:34:14;3.00;;;1.60;;
21927;SDS011;11128;51.096;17.190;2023-12-20T22:39:15;1.98;;;1.40;;
21927;SDS011;11128;51.096;17.190;2023-12-20T22:44:16;5.50;;;1.17;;
21927;SDS011;11128;51.096;17.190;2023-12-20T22:49:18;2.75;;;1.25;;
21927;SDS011;11128;51.096;17.190;2023-12-20T22:54:19;2.85;;;1.27;;
21927;SDS011;11128;51.096;17.190;2023-12-20T22:59:20;2.20;;;0.93;;
21927;SDS011;11128;51.096;17.190;2023-12-20T23:04:22;1.77;;;1.15;;
21927;SDS011;11128;51.096;17.190;2023-12-20T23:09:23;0.98;;;0.55;;
21927;SDS011;11128;51.096;17.190;2023-12-20T23:14:25;0.98;;;0.68;;
21927;SDS011;11128;51.096;17.190;2023-12-20T23:19:27;4.80;;;0.82;;
21927;SDS011;11128;51.096;17.190;2023-12-20T23:24:29;1.95;;;1.00;;
21927;SDS011;11128;51.096;17.190;2023-12-20T23:29:31;1.67;;;0.68;;
21927;SDS011;11128;51.096;17.190;2023-12-20T23:34:32;1.15;;;0.68;;
21927;SDS011;11128;51.096;17.190;2023-12-20T23:39:33;2.28;;;0.75;;
21927;SDS011;11128;51.096;17.190;2023-12-20T23:44:34;1.95;;;0.50;;
21927;SDS011;11128;51.096;17.190;2023-12-20T23:49:36;0.75;;;0.60;;
21927;SDS011;11128;51.096;17.190;2023-12-20T23:54:37;2.28;;;0.90;;
21927;SDS011;11128;51.096;17.190;2023-12-20T23:59:38;1.08;;;0.60;;
